Time;durP1;ratioP1;P1;durP2;ratioP2;P2;SDS_P1;SDS_P2;PMS_P1;PMS_P2;Temp;Humidity;BMP_temperature;BMP_pressure;BME280_temperature;BME280_humidity;BME280_pressure;Samples;Min_cycle;Max_cycle;Signal;HPM_P1;HPM_P2
2022/07/06 00:01:36;;;;;;;4.07;3.70;;;;;;;21.04;88.44;100227.59;5049583;28;20615;-70
2022/07/06 00:04:02;;;;;;;4.13;3.83;;;;;;;21.03;88.50;100223.19;5038979;28;20067;-70
2022/07/06 00:06:28;;;;;;;4.97;4.00;;;;;;;20.92;88.87;100220.19;5029677;28;20079;-71
2022/07/06 00:08:53;;;;;;;4.28;3.88;;;;;;;20.92;88.98;100220.19;5028255;28;20025;-71
2022/07/06 00:11:19;;;;;;;4.63;4.22;;;;;;;20.96;88.82;100225.03;5029569;28;20041;-72
2022/07/06 00:13:45;;;;;;;5.47;4.45;;;;;;;20.94;88.73;100231.75;5029555;28;20029;-71
2022/07/06 00:16:10;;;;;;;6.13;4.75;;;;;;;20.90;88.90;100223.09;5029235;28;20040;-70
2022/07/06 00:18:36;;;;;;;5.20;4.72;;;;;;;20.89;88.73;100226.84;5029388;28;20103;-69
2022/07/06 00:21:01;;;;;;;8.43;4.65;;;;;;;20.89;88.19;100224.13;5036676;28;20070;-71
2022/07/06 00:23:27;;;;;;;4.82;4.32;;;;;;;20.96;87.52;100232.38;5049569;28;20037;-71
2022/07/06 00:25:52;;;;;;;5.65;5.10;;;;;;;20.87;87.67;100222.66;5033642;28;20029;-71
2022/07/06 00:28:18;;;;;;;5.15;4.68;;;;;;;20.80;87.93;100221.78;5044351;28;20028;-70
2022/07/06 00:30:43;;;;;;;5.13;4.63;;;;;;;20.84;87.66;100231.25;5048942;28;20021;-71
2022/07/06 00:33:09;;;;;;;5.10;4.57;;;;;;;20.78;87.89;100226.59;5048651;28;20490;-71
2022/07/06 00:35:35;;;;;;;5.18;4.72;;;;;;;20.83;87.30;100215.94;5049109;28;20037;-70
2022/07/06 00:38:00;;;;;;;4.82;4.43;;;;;;;20.93;87.07;100232.75;5045233;28;20087;-71
2022/07/06 00:40:26;;;;;;;7.13;4.70;;;;;;;20.92;86.87;100236.53;5028968;28;20041;-71
2022/07/06 00:42:52;;;;;;;5.65;4.10;;;;;;;20.76;87.33;100206.88;5029234;28;20025;-71
2022/07/06 00:45:18;;;;;;;5.32;4.93;;;;;;;20.78;87.93;100232.91;5028895;28;20029;-72
2022/07/06 00:47:45;;;;;;;6.68;4.50;;;;;;;20.74;88.30;100236.22;5027502;28;20159;-71
2022/07/06 00:50:22;;;;;;;6.00;5.05;;;;;;;20.70;88.20;100229.50;5028938;28;20112;-70
2022/07/06 00:52:49;;;;;;;4.90;4.45;;;;;;;20.75;87.83;100225.13;5047420;28;20033;-70
2022/07/06 00:55:18;;;;;;;5.65;4.10;;;;;;;20.67;88.19;100214.38;5048497;28;20065;-72
2022/07/06 00:57:44;;;;;;;4.78;4.22;;;;;;;20.60;88.36;100210.78;5041893;28;20029;-70
2022/07/06 01:00:12;;;;;;;4.72;4.28;;;;;;;20.53;88.31;100209.09;5028722;28;20033;-71
2022/07/06 01:02:37;;;;;;;7.15;4.45;;;;;;;20.37;88.17;100184.88;5042100;28;20095;-70
2022/07/06 01:05:08;;;;;;;5.43;4.25;;;;;;;20.44;88.18;100194.75;5052004;28;20415;-70
2022/07/06 01:07:35;;;;;;;5.13;4.38;;;;;;;20.48;88.76;100206.09;5038183;28;20211;-71
2022/07/06 01:10:03;;;;;;;5.72;4.22;;;;;;;20.45;88.71;100215.53;5037928;28;20037;-71
2022/07/06 01:12:29;;;;;;;4.18;3.78;;;;;;;20.35;89.23;100206.03;5031360;28;20545;-71
2022/07/06 01:14:56;;;;;;;5.20;4.30;;;;;;;20.48;88.13;100212.41;5045874;28;20156;-71
2022/07/06 01:17:23;;;;;;;6.75;4.20;;;;;;;20.43;88.01;100214.88;5052702;28;20428;-69
2022/07/06 01:19:49;;;;;;;4.43;4.10;;;;;;;20.35;87.81;100201.44;5052370;28;20108;-71
2022/07/06 01:22:15;;;;;;;4.85;4.35;;;;;;;20.29;88.52;100204.09;5051007;28;20024;-71
2022/07/06 01:24:40;;;;;;;5.07;4.53;;;;;;;20.29;88.81;100215.84;5052385;28;20064;-71
2022/07/06 01:27:07;;;;;;;4.68;4.20;;;;;;;20.17;89.16;100198.34;5045840;28;20444;-71
2022/07/06 01:29:34;;;;;;;5.47;4.10;;;;;;;20.24;88.79;100212.03;5032340;28;20018;-71
2022/07/06 01:32:00;;;;;;;4.72;3.88;;;;;;;20.23;88.80;100216.63;5032323;28;20527;-70
2022/07/06 01:34:26;;;;;;;6.22;4.45;;;;;;;20.20;88.67;100208.84;5030896;28;20049;-71
2022/07/06 01:36:51;;;;;;;4.78;4.22;;;;;;;20.17;88.91;100210.09;5033523;28;20072;-70
2022/07/06 01:39:17;;;;;;;5.80;4.30;;;;;;;20.13;89.10;100211.53;5041535;28;20079;-70
2022/07/06 01:41:42;;;;;;;4.68;4.28;;;;;;;20.23;88.04;100205.75;5029739;28;20033;-71
2022/07/06 01:44:08;;;;;;;5.10;3.92;;;;;;;20.12;88.62;100214.47;5031854;28;20112;-71
2022/07/06 01:46:34;;;;;;;4.93;4.20;;;;;;;20.15;88.50;100223.06;5047815;28;20096;-71
2022/07/06 01:49:00;;;;;;;5.07;4.10;;;;;;;20.11;88.81;100226.34;5039676;28;20114;-70
2022/07/06 01:51:25;;;;;;;6.18;3.83;;;;;;;20.05;89.15;100224.41;5032251;28;20033;-71
2022/07/06 01:53:52;;;;;;;5.32;3.60;;;;;;;20.02;89.35;100224.81;5031775;28;20056;-70
2022/07/06 01:56:21;;;;;;;8.32;3.60;;;;;;;19.94;89.79;100214.94;5032057;28;20105;-71
2022/07/06 01:58:47;;;;;;;4.13;3.65;;;;;;;20.00;89.57;100216.00;5032017;28;20055;-71
2022/07/06 02:01:17;;;;;;;6.97;4.05;;;;;;;19.96;89.73;100218.28;5031799;28;20205;-71
2022/07/06 02:03:43;;;;;;;4.15;3.40;;;;;;;19.94;89.78;100206.75;5043114;28;20044;-70
2022/07/06 02:06:11;;;;;;;6.60;3.50;;;;;;;20.00;89.31;100214.13;5051786;28;20045;-71
2022/07/06 02:08:40;;;;;;;4.40;3.40;;;;;;;19.98;89.36;100215.34;5049712;28;20028;-71
2022/07/06 02:11:06;;;;;;;3.95;3.65;;;;;;;19.96;89.54;100220.19;5031575;28;20036;-70
2022/07/06 02:13:33;;;;;;;4.57;3.97;;;;;;;19.89;89.85;100222.84;5031547;28;20075;-70
2022/07/06 02:15:58;;;;;;;5.90;3.88;;;;;;;19.92;89.74;100227.03;5030305;28;20124;-69
2022/07/06 02:18:24;;;;;;;4.07;3.70;;;;;;;19.89;89.30;100219.25;5031554;28;20025;-71
2022/07/06 02:20:49;;;;;;;3.97;3.33;;;;;;;19.86;89.36;100223.22;5030241;28;20069;-71
2022/07/06 02:23:15;;;;;;;3.70;3.33;;;;;;;19.82;89.68;100221.94;5031192;28;20041;-70
2022/07/06 02:25:40;;;;;;;4.95;3.83;;;;;;;19.85;89.76;100235.16;5031486;28;20108;-70
2022/07/06 02:28:06;;;;;;;4.30;3.90;;;;;;;19.82;89.61;100230.09;5034738;28;20029;-71
2022/07/06 02:30:31;;;;;;;4.82;3.65;;;;;;;19.76;89.60;100230.03;5051043;28;20036;-71
2022/07/06 02:32:57;;;;;;;5.53;3.90;;;;;;;19.73;89.71;100236.72;5046090;28;20033;-70
2022/07/06 02:35:22;;;;;;;3.67;3.38;;;;;;;19.77;90.16;100239.91;5037278;28;20079;-71
2022/07/06 02:37:48;;;;;;;4.10;3.60;;;;;;;19.71;90.09;100236.09;5039342;28;20033;-70
2022/07/06 02:40:13;;;;;;;4.20;3.80;;;;;;;19.65;90.44;100236.88;5031097;28;20029;-71
2022/07/06 02:42:39;;;;;;;3.92;3.53;;;;;;;19.62;89.92;100226.38;5033696;28;20095;-70
2022/07/06 02:45:05;;;;;;;4.95;4.20;;;;;;;19.56;90.27;100223.56;5030914;28;20038;-70
2022/07/06 02:47:31;;;;;;;5.07;4.35;;;;;;;19.50;90.78;100233.34;5031052;28;20486;-71
2022/07/06 02:49:56;;;;;;;5.82;4.10;;;;;;;19.48;91.29;100249.00;5034326;28;20038;-71
2022/07/06 02:52:22;;;;;;;4.88;4.35;;;;;;;19.36;91.73;100228.81;5050934;28;20105;-71
2022/07/06 02:54:48;;;;;;;3.95;3.65;;;;;;;19.29;91.78;100205.31;5033360;28;20045;-71
2022/07/06 02:57:14;;;;;;;5.75;4.10;;;;;;;19.38;91.70;100234.06;5049688;28;20033;-71
2022/07/06 02:59:40;;;;;;;3.95;3.35;;;;;;;19.37;92.15;100238.66;5050322;28;20093;-71
2022/07/06 03:02:07;;;;;;;5.97;4.38;;;;;;;19.33;92.15;100245.53;5033040;28;20492;-70
2022/07/06 03:04:33;;;;;;;5.20;4.70;;;;;;;19.31;92.74;100239.41;5030414;28;20057;-70
2022/07/06 03:06:59;;;;;;;3.80;3.50;;;;;;;19.26;92.14;100228.28;5036193;28;20446;-71
2022/07/06 03:09:25;;;;;;;5.53;3.58;;;;;;;19.24;92.46;100235.75;5050414;28;20037;-71
2022/07/06 03:11:51;;;;;;;5.65;4.30;;;;;;;19.31;92.47;100244.03;5044018;28;20030;-72
2022/07/06 03:14:17;;;;;;;5.32;4.10;;;;;;;19.14;92.58;100216.19;5030298;28;20393;-71
2022/07/06 03:16:42;;;;;;;4.78;4.10;;;;;;;19.25;92.49;100251.03;5030308;28;20407;-71
2022/07/06 03:19:08;;;;;;;5.65;4.00;;;;;;;19.23;92.98;100258.56;5029956;28;20083;-72
2022/07/06 03:21:33;;;;;;;3.78;3.42;;;;;;;19.18;92.38;100239.25;5029530;28;20506;-71
2022/07/06 03:23:59;;;;;;;4.85;3.88;;;;;;;19.07;92.56;100220.72;5028083;28;20029;-71
2022/07/06 03:26:25;;;;;;;4.38;3.75;;;;;;;19.18;92.97;100235.66;5029483;28;20080;-70
2022/07/06 03:28:51;;;;;;;5.82;4.38;;;;;;;19.17;93.12;100234.84;5029972;28;20057;-70
2022/07/06 03:31:16;;;;;;;4.32;3.83;;;;;;;19.12;93.40;100231.84;5029813;28;20049;-71
2022/07/06 03:33:42;;;;;;;4.00;3.60;;;;;;;19.14;93.16;100239.81;5030804;28;20025;-70
2022/07/06 03:36:07;;;;;;;4.97;4.10;;;;;;;19.04;93.07;100228.41;5029846;28;20041;-70
2022/07/06 03:38:34;;;;;;;6.10;3.95;;;;;;;19.10;93.78;100243.94;5027216;28;20518;-70
2022/07/06 03:40:59;;;;;;;4.53;4.00;;;;;;;19.10;93.95;100243.94;5028527;28;20567;-71
2022/07/06 03:43:25;;;;;;;4.82;3.90;;;;;;;19.19;93.39;100243.63;5027728;28;20095;-71
2022/07/06 03:45:50;;;;;;;4.63;4.22;;;;;;;19.24;92.91;100243.06;5028744;28;20048;-70
2022/07/06 03:48:16;;;;;;;4.60;3.92;;;;;;;19.29;92.91;100255.09;5029630;28;20127;-71
2022/07/06 03:50:41;;;;;;;6.07;3.70;;;;;;;19.27;93.19;100256.31;5029757;28;20041;-62
2022/07/06 03:53:07;;;;;;;5.20;3.70;;;;;;;19.33;92.64;100253.69;5029439;28;20079;-64
2022/07/06 03:55:32;;;;;;;4.32;3.70;;;;;;;19.39;92.13;100258.34;5043507;28;20036;-62
2022/07/06 03:57:58;;;;;;;5.53;3.88;;;;;;;19.46;91.57;100253.81;5049821;28;20102;-64
2022/07/06 04:00:23;;;;;;;5.25;3.80;;;;;;;19.48;91.23;100248.19;5039317;28;20029;-63
2022/07/06 04:02:49;;;;;;;4.57;3.60;;;;;;;19.63;91.02;100260.69;5029951;28;20038;-64
2022/07/06 04:05:17;;;;;;;4.93;4.32;;;;;;;19.67;90.78;100261.97;5038382;28;20048;-63
2022/07/06 04:07:42;;;;;;;6.03;4.05;;;;;;;19.77;90.29;100256.22;5041639;28;20412;-63
2022/07/06 04:10:08;;;;;;;6.38;4.20;;;;;;;19.92;88.89;100260.56;5034829;28;20034;-65
2022/07/06 04:12:42;;;;;;;5.53;3.67;;;;;;;20.04;88.25;100253.53;5034838;28;20508;-63
2022/07/06 04:15:08;;;;;;;4.53;3.53;;;;;;;20.05;88.54;100249.78;5041005;28;20031;-64
2022/07/06 04:17:52;;;;;;;3.83;3.53;;;;;;;20.10;88.03;100247.31;5033644;28;20404;-64
2022/07/06 04:20:18;;;;;;;7.27;4.33;;;;;;;20.13;87.40;100241.47;5029620;28;20021;-64
2022/07/06 04:22:43;;;;;;;4.72;4.05;;;;;;;20.32;86.78;100255.47;5028518;28;20022;-63
2022/07/06 04:25:09;;;;;;;8.07;4.25;;;;;;;20.34;86.09;100235.13;5029563;28;20029;-62
2022/07/06 04:27:34;;;;;;;4.90;3.58;;;;;;;20.43;86.35;100252.16;5038791;28;20035;-63
2022/07/06 04:30:00;;;;;;;7.20;3.50;;;;;;;20.52;85.49;100249.09;5035947;28;20184;-63
2022/07/06 04:32:25;;;;;;;3.97;3.53;;;;;;;20.53;85.66;100237.16;5030999;28;20045;-63
2022/07/06 04:34:51;;;;;;;6.90;4.07;;;;;;;20.53;84.88;100239.88;5032344;28;20136;-62
2022/07/06 04:37:17;;;;;;;8.57;4.38;;;;;;;20.35;85.13;100206.03;5034069;28;20037;-64
2022/07/06 04:39:42;;;;;;;4.63;3.80;;;;;;;20.50;85.01;100231.28;5045453;28;20040;-63
2022/07/06 04:42:08;;;;;;;5.80;4.05;;;;;;;20.64;84.23;100238.47;5048653;28;20114;-63
2022/07/06 04:44:33;;;;;;;4.30;3.90;;;;;;;20.65;83.96;100230.09;5033856;28;20025;-64
2022/07/06 04:46:59;;;;;;;3.90;3.50;;;;;;;20.68;84.47;100228.84;5036782;28;20028;-64
2022/07/06 04:49:24;;;;;;;3.70;3.40;;;;;;;20.71;85.41;100231.19;5028972;28;20174;-63
2022/07/06 04:51:50;;;;;;;4.72;3.72;;;;;;;20.76;84.48;100217.78;5043960;28;20063;-63
2022/07/06 04:54:15;;;;;;;5.85;4.20;;;;;;;20.83;83.11;100197.66;5040136;28;20045;-61
2022/07/06 04:56:41;;;;;;;6.07;3.80;;;;;;;21.09;82.41;100216.91;5029030;28;20061;-63
2022/07/06 04:59:06;;;;;;;6.40;3.92;;;;;;;21.31;80.15;100221.16;5028676;28;20040;-64
2022/07/06 05:01:32;;;;;;;5.03;3.15;;;;;;;21.33;80.60;100230.00;5041916;28;20137;-62
2022/07/06 05:03:57;;;;;;;6.55;3.10;;;;;;;21.45;80.46;100233.81;5034097;28;20060;-63
2022/07/06 05:06:22;;;;;;;4.03;3.60;;;;;;;21.61;78.14;100224.38;5027389;28;20484;-64
2022/07/06 05:08:48;;;;;;;3.90;3.53;;;;;;;21.67;78.48;100231.75;5033442;28;20025;-64
2022/07/06 05:11:13;;;;;;;6.43;3.30;;;;;;;21.80;77.44;100246.28;5028940;28;20032;-64
2022/07/06 05:13:39;;;;;;;5.88;2.97;;;;;;;21.71;77.95;100230.28;5034026;28;20033;-63
2022/07/06 05:16:04;;;;;;;3.63;3.33;;;;;;;21.86;76.43;100223.59;5040898;28;20067;-64
2022/07/06 05:18:30;;;;;;;7.07;3.58;;;;;;;21.97;76.08;100233.06;5034899;28;20038;-63
2022/07/06 05:20:56;;;;;;;5.68;2.92;;;;;;;22.17;75.88;100245.66;5043906;28;20123;-63
2022/07/06 05:23:21;;;;;;;3.30;3.00;;;;;;;22.38;74.17;100238.28;5048101;28;20462;-63
2022/07/06 05:25:47;;;;;;;4.57;2.85;;;;;;;22.49;73.78;100249.44;5048079;28;20037;-63
2022/07/06 05:28:12;;;;;;;3.30;2.92;;;;;;;22.54;73.23;100241.47;5040982;28;20040;-63
2022/07/06 05:30:38;;;;;;;3.75;3.05;;;;;;;22.56;72.54;100242.06;5033049;28;20115;-63
2022/07/06 05:33:04;;;;;;;5.15;3.15;;;;;;;22.63;71.95;100234.69;5028552;28;20075;-62
2022/07/06 05:35:29;;;;;;;4.45;3.10;;;;;;;22.85;70.41;100246.19;5030863;28;20035;-64
2022/07/06 05:37:55;;;;;;;5.32;2.88;;;;;;;22.91;70.75;100253.53;5035381;28;20049;-63
2022/07/06 05:40:21;;;;;;;5.68;2.78;;;;;;;22.91;70.44;100248.91;5048474;28;20069;-63
2022/07/06 05:42:46;;;;;;;4.90;3.13;;;;;;;23.05;70.68;100266.94;5035934;28;20028;-63
2022/07/06 05:45:12;;;;;;;4.63;3.10;;;;;;;23.21;68.74;100266.47;5031257;28;20044;-64
2022/07/06 05:50:21;;;;;;;6.03;3.13;;;;;;;23.16;69.61;100281.84;5047862;28;20090;-64
2022/07/06 05:53:02;;;;;;;3.72;3.10;;;;;;;23.16;68.69;100257.22;5051821;28;20044;-63
2022/07/06 05:55:27;;;;;;;3.30;3.00;;;;;;;23.33;69.28;100275.72;5036267;28;20044;-64
2022/07/06 05:57:56;;;;;;;4.85;3.00;;;;;;;23.35;67.57;100257.19;5050754;28;20487;-64
2022/07/06 06:00:23;;;;;;;5.78;3.08;;;;;;;23.34;68.08;100247.28;5051773;28;20041;-64
2022/07/06 06:02:48;;;;;;;4.43;3.00;;;;;;;23.66;67.33;100281.84;5032898;28;20495;-64
2022/07/06 06:05:15;;;;;;;4.50;2.92;;;;;;;23.67;67.41;100271.75;5041925;28;20029;-64
2022/07/06 06:07:41;;;;;;;3.63;2.50;;;;;;;23.87;66.26;100272.44;5047252;28;20087;-63
2022/07/06 06:10:09;;;;;;;3.60;2.35;;;;;;;23.98;65.59;100266.28;5048800;28;20034;-63
2022/07/06 06:12:35;;;;;;;3.47;2.00;;;;;;;24.08;65.40;100261.97;5035995;28;20762;-65
2022/07/06 06:15:01;;;;;;;2.65;2.30;;;;;;;24.30;64.93;100276.97;5033383;28;20055;-64
2022/07/06 06:17:26;;;;;;;2.97;2.17;;;;;;;24.51;63.91;100286.72;5031593;28;20075;-63
2022/07/06 06:19:52;;;;;;;2.10;1.90;;;;;;;24.64;63.60;100289.34;5034027;28;20102;-64
2022/07/06 06:22:17;;;;;;;4.07;2.00;;;;;;;24.63;62.57;100275.84;5031673;28;20628;-63
2022/07/06 06:24:43;;;;;;;3.85;2.30;;;;;;;24.88;61.33;100288.47;5042606;28;20510;-63
2022/07/06 06:27:08;;;;;;;7.32;2.30;;;;;;;24.86;61.48;100292.50;5051566;28;20079;-64
2022/07/06 06:29:34;;;;;;;2.25;2.05;;;;;;;24.73;62.11;100285.22;5040840;28;20044;-62
2022/07/06 06:31:59;;;;;;;6.05;2.35;;;;;;;24.68;61.74;100290.56;5031458;28;20526;-63
2022/07/06 06:34:25;;;;;;;2.00;1.90;;;;;;;24.60;62.26;100295.47;5031223;28;20025;-64
2022/07/06 06:36:50;;;;;;;11.75;2.85;;;;;;;24.47;62.75;100290.94;5034001;28;20044;-63
2022/07/06 06:39:16;;;;;;;4.05;2.42;;;;;;;24.26;63.36;100289.47;5035932;28;20044;-64
2022/07/06 06:41:41;;;;;;;3.13;1.95;;;;;;;24.19;63.80;100293.31;5037709;28;20029;-64
2022/07/06 06:44:07;;;;;;;3.78;2.17;;;;;;;24.15;64.57;100297.56;5038098;28;20116;-63
2022/07/06 06:46:32;;;;;;;1.73;1.63;;;;;;;24.12;64.76;100300.75;5046830;28;20526;-65
2022/07/06 06:48:58;;;;;;;2.50;1.92;;;;;;;24.10;65.17;100314.69;5046816;28;20528;-64
2022/07/06 06:51:23;;;;;;;2.08;1.60;;;;;;;24.11;65.17;100319.09;5049326;28;20032;-63
2022/07/06 06:53:49;;;;;;;4.28;2.20;;;;;;;24.06;65.17;100320.81;5050628;28;20515;-63
2022/07/06 06:56:14;;;;;;;3.22;1.90;;;;;;;24.02;65.44;100334.13;5049542;28;20111;-62
2022/07/06 06:58:40;;;;;;;1.70;1.60;;;;;;;23.89;65.91;100336.91;5033420;28;20059;-63
2022/07/06 07:01:05;;;;;;;2.00;1.85;;;;;;;23.67;66.15;100313.63;5041953;28;20282;-64
2022/07/06 07:03:31;;;;;;;6.88;2.03;;;;;;;23.70;67.36;100346.06;5047312;28;20029;-63
2022/07/06 07:05:57;;;;;;;5.65;1.90;;;;;;;23.63;67.94;100350.75;5044503;28;20037;-63
2022/07/06 07:08:23;;;;;;;4.85;2.00;;;;;;;23.54;68.25;100340.28;5037519;28;20035;-63
2022/07/06 07:10:48;;;;;;;10.38;1.90;;;;;;;23.55;68.97;100351.00;5038536;28;20041;-64
2022/07/06 07:13:14;;;;;;;2.08;1.90;;;;;;;23.57;68.88;100359.00;5041144;28;20031;-63
2022/07/06 07:15:40;;;;;;;4.85;2.33;;;;;;;23.57;69.07;100353.53;5050432;28;20038;-64
2022/07/06 07:18:06;;;;;;;2.92;1.85;;;;;;;23.57;69.02;100359.84;5035509;28;20369;-64
2022/07/06 07:20:33;;;;;;;1.83;1.73;;;;;;;23.58;68.70;100355.22;5037692;28;20037;-62
2022/07/06 07:22:59;;;;;;;7.47;1.95;;;;;;;23.56;69.18;100352.69;5035088;28;20037;-64
2022/07/06 07:25:24;;;;;;;4.50;1.50;;;;;;;23.54;69.22;100349.31;5039545;28;20082;-65
2022/07/06 07:27:49;;;;;;;2.28;1.73;;;;;;;23.56;69.25;100352.69;5036626;28;20555;-64
2022/07/06 07:30:15;;;;;;;4.82;1.80;;;;;;;23.52;69.13;100343.22;5036687;28;20056;-63
2022/07/06 07:32:41;;;;;;;3.42;1.42;;;;;;;23.66;68.29;100352.19;5046937;28;20036;-60
2022/07/06 07:35:06;;;;;;;1.98;1.75;;;;;;;23.74;68.29;100366.50;5046865;28;20040;-60
2022/07/06 07:37:32;;;;;;;1.73;1.30;;;;;;;23.82;67.33;100358.03;5049458;28;20090;-60
2022/07/06 07:39:58;;;;;;;7.93;2.00;;;;;;;23.89;67.53;100367.03;5035093;28;20108;-60
2022/07/06 07:42:24;;;;;;;3.28;1.42;;;;;;;23.96;67.07;100359.66;5032286;28;20461;-60
2022/07/06 07:44:50;;;;;;;3.90;1.65;;;;;;;24.00;66.62;100349.97;5037995;28;20029;-60
2022/07/06 07:47:15;;;;;;;5.32;1.77;;;;;;;24.20;66.44;100363.50;5036277;28;20025;-59
2022/07/06 07:49:41;;;;;;;13.50;1.90;;;;;;;24.29;65.95;100374.00;5044205;28;20103;-60
2022/07/06 07:52:07;;;;;;;3.47;1.50;;;;;;;24.36;64.82;100371.19;5046632;28;20028;-59
2022/07/06 07:54:32;;;;;;;4.38;1.33;;;;;;;24.32;64.85;100348.03;5049786;28;20140;-60
2022/07/06 07:56:58;;;;;;;3.80;1.58;;;;;;;24.37;63.87;100348.19;5037888;28;20036;-60
2022/07/06 07:59:23;;;;;;;4.18;1.60;;;;;;;24.54;64.26;100376.78;5036782;28;20029;-60
2022/07/06 08:01:49;;;;;;;3.90;1.63;;;;;;;24.62;64.24;100387.44;5030505;28;20104;-59
2022/07/06 08:04:15;;;;;;;4.93;1.20;;;;;;;24.72;63.07;100404.28;5037973;28;20029;-59
2022/07/06 08:06:40;;;;;;;1.55;1.10;;;;;;;24.77;62.93;100398.97;5045462;28;20055;-60
2022/07/06 08:09:07;;;;;;;2.42;1.30;;;;;;;24.81;62.75;100396.59;5040287;28;20025;-60
2022/07/06 08:11:34;;;;;;;5.75;1.33;;;;;;;24.84;62.90;100401.63;5037104;28;20095;-59
2022/07/06 08:13:59;;;;;;;4.68;1.35;;;;;;;24.84;62.41;100402.50;5028725;28;20032;-59
2022/07/06 08:16:25;;;;;;;2.10;1.40;;;;;;;24.86;62.47;100405.84;5031665;28;20037;-59
2022/07/06 08:18:51;;;;;;;1.55;1.13;;;;;;;24.72;62.71;100393.31;5040363;28;20029;-59
2022/07/06 08:21:16;;;;;;;1.67;1.00;;;;;;;24.92;61.46;100415.91;5038346;28;20044;-63
2022/07/06 08:23:42;;;;;;;3.33;1.15;;;;;;;24.89;61.54;100416.34;5031830;28;20108;-63
2022/07/06 08:26:07;;;;;;;2.28;1.00;;;;;;;24.85;61.91;100420.63;5037779;28;20037;-64
2022/07/06 08:28:33;;;;;;;1.95;1.00;;;;;;;24.90;61.23;100425.44;5035489;28;20468;-63
2022/07/06 08:30:58;;;;;;;1.95;1.00;;;;;;;24.93;60.95;100425.00;5034702;28;20533;-64
2022/07/06 08:33:24;;;;;;;2.00;0.82;;;;;;;24.89;60.99;100421.03;5043841;28;20052;-63
2022/07/06 08:35:49;;;;;;;1.70;0.90;;;;;;;24.93;60.83;100425.84;5032951;28;20072;-65
2022/07/06 08:38:15;;;;;;;2.17;1.20;;;;;;;24.90;60.92;100430.94;5040569;28;20041;-63
2022/07/06 08:40:43;;;;;;;5.35;1.13;;;;;;;24.83;60.70;100408.19;5032164;28;20034;-65
2022/07/06 08:43:09;;;;;;;4.30;0.95;;;;;;;24.93;60.60;100416.75;5040074;28;20059;-63
2022/07/06 08:45:35;;;;;;;3.38;1.00;;;;;;;25.00;60.78;100420.28;5042071;28;20068;-64
2022/07/06 08:48:05;;;;;;;2.72;1.10;;;;;;;25.04;60.46;100424.25;5040352;28;20029;-64
2022/07/06 08:50:33;;;;;;;4.78;0.93;;;;;;;25.02;60.06;100412.69;5041517;28;20468;-64
2022/07/06 08:52:58;;;;;;;2.53;1.00;;;;;;;25.08;60.55;100414.53;5036157;28;20451;-63
2022/07/06 08:55:25;;;;;;;2.72;1.10;;;;;;;25.09;60.17;100411.56;5034576;28;20129;-64
2022/07/06 08:57:51;;;;;;;1.20;0.80;;;;;;;25.16;59.58;100411.47;5035842;28;20529;-65
2022/07/06 09:00:17;;;;;;;5.10;0.80;;;;;;;25.20;59.54;100404.44;5046353;28;20033;-63
2022/07/06 09:02:43;;;;;;;1.63;0.90;;;;;;;25.10;59.65;100382.16;5041675;28;20116;-64
2022/07/06 09:05:14;;;;;;;1.48;0.90;;;;;;;25.19;59.56;100392.66;5035501;28;20609;-63
2022/07/06 09:07:40;;;;;;;4.55;1.10;;;;;;;25.17;59.81;100394.78;5043197;28;20041;-65
2022/07/06 09:10:07;;;;;;;2.45;1.05;;;;;;;25.25;59.25;100419.19;5040250;28;20021;-65
2022/07/06 09:12:33;;;;;;;4.15;1.00;;;;;;;25.23;59.47;100398.50;5028785;28;20103;-64
2022/07/06 09:14:59;;;;;;;2.75;0.55;;;;;;;25.33;59.19;100409.84;5038617;28;20029;-64
2022/07/06 09:17:29;;;;;;;1.73;0.68;;;;;;;25.32;58.07;100400.78;5031991;28;20446;-65
2022/07/06 09:19:55;;;;;;;4.32;0.90;;;;;;;25.32;58.07;100406.28;5047758;28;20541;-63
2022/07/06 09:22:31;;;;;;;4.15;0.80;;;;;;;25.36;58.08;100418.47;5048670;28;20115;-64
2022/07/06 09:25:08;;;;;;;0.73;0.50;;;;;;;25.37;58.18;100411.09;5040848;28;20025;-64
2022/07/06 09:27:39;;;;;;;3.55;0.68;;;;;;;25.26;58.24;100387.06;5044233;28;20361;-63
2022/07/06 09:30:07;;;;;;;2.45;0.73;;;;;;;25.47;57.86;100428.69;5046103;28;20026;-64
2022/07/06 09:32:44;;;;;;;0.82;0.70;;;;;;;25.48;57.74;100427.63;5046116;28;20033;-65
2022/07/06 09:35:36;;;;;;;0.52;0.45;;;;;;;25.52;57.71;100428.00;5050881;28;20793;-65
2022/07/06 09:38:04;;;;;;;4.03;0.50;;;;;;;25.52;57.70;100433.50;5044326;28;20036;-64
2022/07/06 09:40:32;;;;;;;4.57;0.60;;;;;;;25.51;57.78;100424.44;5048722;28;20105;-64
2022/07/06 09:43:23;;;;;;;1.52;0.85;;;;;;;25.58;57.37;100424.34;5032290;28;20029;-64
2022/07/06 09:45:51;;;;;;;2.35;0.70;;;;;;;25.57;56.97;100428.16;5032214;28;20056;-64
2022/07/06 09:48:21;;;;;;;0.40;0.40;;;;;;;25.58;56.51;100419.69;5032176;28;20447;-63
2022/07/06 09:50:50;;;;;;;3.03;0.60;;;;;;;25.53;56.18;100432.41;5032566;28;20030;-64
2022/07/06 09:53:17;;;;;;;0.50;0.50;;;;;;;25.52;56.33;100428.84;5050666;28;20045;-65
2022/07/06 09:55:50;;;;;;;3.67;0.52;;;;;;;25.50;56.41;100413.69;5034647;28;20112;-64
2022/07/06 09:58:16;;;;;;;0.93;0.57;;;;;;;25.57;56.65;100415.25;5033710;28;20072;-64
2022/07/06 10:00:43;;;;;;;1.65;0.40;;;;;;;25.51;56.61;100396.13;5037376;28;20033;-64
2022/07/06 10:03:08;;;;;;;4.15;0.60;;;;;;;25.66;56.96;100408.38;5051877;28;20102;-64
2022/07/06 10:05:46;;;;;;;0.50;0.50;;;;;;;25.81;56.25;100422.59;5044682;28;20033;-65
2022/07/06 10:08:13;;;;;;;1.73;0.60;;;;;;;25.88;55.95;100417.00;5030041;28;20025;-65
2022/07/06 10:10:40;;;;;;;4.05;0.70;;;;;;;26.03;56.00;100420.22;5033503;28;20057;-63
2022/07/06 10:13:07;;;;;;;0.55;0.50;;;;;;;26.17;55.64;100422.56;5051474;28;20028;-63
2022/07/06 10:15:33;;;;;;;0.93;0.57;;;;;;;26.27;54.96;100414.56;5050148;28;20104;-64
2022/07/06 10:18:00;;;;;;;1.15;0.70;;;;;;;26.47;54.58;100428.00;5051689;28;20025;-65
2022/07/06 10:20:31;;;;;;;0.82;0.50;;;;;;;26.60;54.78;100416.84;5037224;28;20103;-70
2022/07/06 10:23:00;;;;;;;2.80;0.80;;;;;;;26.69;54.14;100417.34;5041820;28;20026;-71
2022/07/06 10:25:27;;;;;;;2.42;0.77;;;;;;;26.81;52.97;100412.69;5043067;28;20474;-72
2022/07/06 10:27:55;;;;;;;1.63;0.80;;;;;;;26.84;53.13;100410.31;5051209;28;20033;-70
2022/07/06 10:30:21;;;;;;;1.90;0.50;;;;;;;26.91;53.40;100407.41;5050006;28;20047;-71
2022/07/06 10:32:49;;;;;;;1.10;0.63;;;;;;;27.03;53.26;100416.53;5031715;28;20030;-71
2022/07/06 10:35:18;;;;;;;1.38;0.70;;;;;;;27.11;52.41;100414.25;5029821;28;20087;-71
2022/07/06 10:37:43;;;;;;;0.68;0.60;;;;;;;27.21;52.73;100419.19;5036370;28;20041;-71
2022/07/06 10:43:02;;;;;;;0.70;0.70;;;;;;;27.45;50.83;100410.69;5041276;28;20458;-71
2022/07/06 10:45:27;;;;;;;2.85;0.55;;;;;;;27.57;50.30;100407.91;5033758;28;20072;-71
2022/07/06 10:48:11;;;;;;;1.85;0.90;;;;;;;27.63;50.39;100413.28;5050753;28;20125;-72
2022/07/06 10:50:38;;;;;;;1.13;0.90;;;;;;;27.75;50.06;100405.81;5029561;28;20325;-71
2022/07/06 10:53:10;;;;;;;2.00;0.85;;;;;;;27.86;49.78;100402.22;5030927;28;20065;-71
2022/07/06 10:55:37;;;;;;;0.75;0.75;;;;;;;28.02;48.50;100403.38;5031098;28;20029;-71
2022/07/06 10:58:04;;;;;;;1.20;0.77;;;;;;;28.09;48.57;100396.59;5031013;28;20029;-71
2022/07/06 11:00:52;;;;;;;3.70;1.13;;;;;;;28.06;48.55;100397.13;5030633;28;20040;-71
2022/07/06 11:03:34;;;;;;;4.43;1.15;;;;;;;28.11;48.79;100405.47;5030977;28;20571;-71
2022/07/06 11:06:10;;;;;;;2.85;0.82;;;;;;;28.14;48.79;100401.38;5030809;28;20045;-70
2022/07/06 11:08:57;;;;;;;2.67;1.25;;;;;;;28.15;48.65;100397.56;5029762;28;20392;-71
2022/07/06 11:11:41;;;;;;;1.58;0.80;;;;;;;28.20;49.09;100392.13;5050296;28;20442;-70
2022/07/06 11:14:09;;;;;;;1.30;1.10;;;;;;;28.25;48.31;100398.56;5050389;28;20021;-71
2022/07/06 11:17:04;;;;;;;2.35;1.15;;;;;;;28.36;47.38;100397.69;5050244;28;20035;-70
2022/07/06 11:19:29;;;;;;;1.52;1.05;;;;;;;28.40;47.59;100384.22;5047509;28;20103;-72
2022/07/06 11:21:57;;;;;;;2.13;1.20;;;;;;;28.48;47.49;100395.75;5050278;28;20415;-70
2022/07/06 11:24:23;;;;;;;1.42;1.25;;;;;;;28.52;47.43;100402.44;5049961;28;20459;-71
2022/07/06 11:26:50;;;;;;;1.20;1.10;;;;;;;28.51;46.98;100391.66;5050462;28;20120;-71
2022/07/06 11:29:18;;;;;;;2.00;1.23;;;;;;;28.50;47.21;100381.66;5050348;28;20048;-72